createdAt,value
2019-04-05T00:01:10.625Z,14.10
2019-04-05T00:03:38.089Z,11.07
2019-04-05T00:06:05.432Z,13.87
2019-04-05T00:08:32.740Z,12.63
2019-04-05T00:11:00.592Z,13.70
2019-04-05T00:13:27.945Z,13.43
2019-04-05T00:15:55.392Z,13.60
2019-04-05T00:18:22.744Z,13.33
2019-04-05T00:20:50.028Z,13.30
2019-04-05T00:23:17.332Z,13.20
2019-04-05T00:25:44.609Z,13.00
2019-04-05T00:28:11.885Z,13.80
2019-04-05T00:30:39.270Z,14.67
2019-04-05T00:33:06.554Z,15.77
2019-04-05T00:35:33.849Z,12.47
2019-04-05T00:38:01.169Z,13.90
2019-04-05T00:40:28.549Z,14.30
2019-04-05T00:42:55.831Z,13.17
2019-04-05T00:45:28.282Z,13.00
2019-04-05T00:47:52.204Z,12.37
2019-04-05T00:50:19.709Z,12.43
2019-04-05T00:52:47.933Z,12.80
2019-04-05T00:55:15.369Z,13.60
2019-04-05T00:57:42.633Z,13.70
2019-04-05T01:00:11.703Z,13.80
2019-04-05T01:02:38.973Z,13.00
2019-04-05T01:05:06.944Z,14.10
2019-04-05T01:07:34.320Z,13.13
2019-04-05T01:10:01.697Z,12.93
2019-04-05T01:12:29.041Z,12.60
2019-04-05T01:14:56.737Z,13.60
2019-04-05T01:17:25.186Z,15.23
2019-04-05T01:19:54.298Z,13.70
2019-04-05T01:22:23.211Z,15.20
2019-04-05T01:24:50.687Z,12.33
2019-04-05T01:27:19.108Z,14.73
2019-04-05T01:29:46.504Z,13.83
2019-04-05T01:32:13.789Z,14.67
2019-04-05T01:34:41.144Z,13.70
2019-04-05T01:37:08.462Z,16.27
2019-04-05T01:39:35.742Z,13.47
2019-04-05T01:42:03.020Z,13.17
2019-04-05T01:44:30.324Z,12.20
2019-04-05T01:46:57.669Z,12.90
2019-04-05T01:49:25.024Z,13.40
2019-04-05T01:51:52.564Z,13.93
2019-04-05T01:54:19.836Z,12.93
2019-04-05T01:56:47.111Z,12.33
2019-04-05T01:59:14.427Z,11.50
2019-04-05T02:01:41.766Z,13.07
2019-04-05T02:04:09.034Z,12.93
2019-04-05T02:06:36.413Z,12.63
2019-04-05T02:09:06.860Z,12.40
2019-04-05T02:11:34.140Z,18.50
2019-04-05T02:14:01.509Z,12.60
2019-04-05T02:16:28.859Z,13.53
2019-04-05T02:18:56.200Z,12.73
2019-04-05T02:21:23.648Z,11.83
2019-04-05T02:23:50.916Z,13.93
2019-04-05T02:26:18.286Z,13.47
2019-04-05T02:28:45.589Z,12.67
2019-04-05T02:31:12.865Z,13.37
2019-04-05T02:33:40.199Z,12.53
2019-04-05T02:36:07.525Z,13.90
2019-04-05T02:38:34.869Z,13.63
2019-04-05T02:41:02.896Z,13.50
2019-04-05T02:43:31.651Z,12.80
2019-04-05T02:45:59.561Z,13.60
2019-04-05T02:48:28.413Z,12.47
2019-04-05T02:50:57.262Z,13.60
2019-04-05T02:53:24.678Z,14.07
2019-04-05T02:55:52.650Z,13.40
2019-04-05T02:58:21.318Z,13.63
2019-04-05T03:00:48.826Z,13.20
2019-04-05T03:03:16.237Z,12.43
2019-04-05T03:05:44.222Z,12.90
2019-04-05T03:08:11.785Z,13.00
2019-04-05T03:10:43.642Z,12.70
2019-04-05T03:13:11.131Z,11.37
2019-04-05T03:15:38.790Z,12.93
2019-04-05T03:18:06.189Z,12.07
2019-04-05T03:20:33.565Z,11.80
2019-04-05T03:23:00.913Z,15.77
2019-04-05T03:25:28.261Z,14.53
2019-04-05T03:27:55.629Z,11.30
2019-04-05T03:30:22.980Z,14.10
2019-04-05T03:32:50.320Z,12.27
2019-04-05T03:35:18.007Z,11.93
2019-04-05T03:37:45.945Z,12.27
2019-04-05T03:40:13.226Z,13.80
2019-04-05T03:42:40.544Z,13.77
2019-04-05T03:45:08.205Z,12.23
2019-04-05T03:47:35.582Z,12.43
2019-04-05T03:50:03.900Z,13.90
2019-04-05T03:52:31.236Z,12.70
2019-04-05T03:54:58.594Z,12.40
2019-04-05T03:57:26.013Z,12.97
2019-04-05T03:59:53.373Z,12.70
2019-04-05T04:02:23.505Z,12.73
2019-04-05T04:04:49.763Z,12.90
2019-04-05T04:07:17.538Z,11.80
2019-04-05T04:09:44.868Z,13.10
2019-04-05T04:12:12.252Z,11.77
2019-04-05T04:14:39.733Z,13.03
2019-04-05T04:17:12.539Z,12.97
2019-04-05T04:19:36.549Z,15.57
2019-04-05T04:22:08.380Z,15.57
2019-04-05T04:24:36.444Z,13.70
2019-04-05T04:27:03.829Z,13.30
2019-04-05T04:29:31.172Z,14.07
2019-04-05T04:31:58.830Z,14.23
2019-04-05T04:34:26.665Z,16.37
2019-04-05T04:36:54.035Z,13.87
2019-04-05T04:39:21.477Z,13.97
2019-04-05T04:41:48.901Z,13.70
2019-04-05T04:44:17.152Z,14.03
2019-04-05T04:46:47.840Z,12.83
2019-04-05T04:49:13.830Z,16.57
2019-04-05T04:51:41.441Z,13.33
2019-04-05T04:54:08.777Z,13.87
2019-04-05T04:56:36.092Z,13.07
2019-04-05T04:59:03.444Z,14.30
2019-04-05T05:01:30.893Z,13.27
2019-04-05T05:03:58.367Z,13.43
2019-04-05T05:06:25.701Z,12.67
2019-04-05T05:08:53.052Z,13.50
2019-04-05T05:11:20.455Z,14.00
2019-04-05T05:13:47.883Z,14.43
2019-04-05T05:16:15.421Z,13.13
2019-04-05T05:18:42.723Z,13.17
2019-04-05T05:21:09.998Z,12.37
2019-04-05T05:23:37.345Z,12.77
2019-04-05T05:26:05.173Z,12.73
2019-04-05T05:28:32.854Z,14.27
2019-04-05T05:31:00.417Z,12.23
2019-04-05T05:33:27.808Z,12.17
2019-04-05T05:35:55.156Z,12.90
2019-04-05T05:38:22.429Z,17.13
2019-04-05T05:40:49.822Z,12.30
2019-04-05T05:43:18.229Z,12.10
2019-04-05T05:45:45.568Z,12.90
2019-04-05T05:48:12.945Z,14.30
2019-04-05T05:50:41.089Z,11.63
2019-04-05T05:53:08.352Z,12.43
2019-04-05T05:55:35.669Z,15.10
2019-04-05T05:58:02.948Z,10.93
2019-04-05T06:00:31.051Z,12.30
2019-04-05T06:02:58.561Z,14.50
2019-04-05T06:05:25.833Z,10.80
2019-04-05T06:07:53.136Z,10.10
2019-04-05T06:10:20.843Z,10.73
2019-04-05T06:12:48.293Z,10.53
2019-04-05T06:15:15.701Z,10.57
2019-04-05T06:17:43.092Z,12.10
2019-04-05T06:20:10.629Z,14.80
2019-04-05T06:22:37.976Z,9.60
2019-04-05T06:25:06.154Z,9.63
2019-04-05T06:27:35.425Z,10.93
2019-04-05T06:30:02.609Z,11.83
2019-04-05T06:32:29.972Z,12.37
2019-04-05T06:34:57.245Z,12.40
2019-04-05T06:37:24.521Z,10.63
2019-04-05T06:39:51.832Z,12.90
2019-04-05T06:42:19.212Z,12.97
2019-04-05T06:44:49.296Z,11.77
2019-04-05T06:47:16.677Z,12.87
2019-04-05T06:49:43.988Z,14.37
2019-04-05T06:52:11.289Z,19.20
2019-04-05T06:54:38.685Z,15.43
2019-04-05T06:57:05.987Z,13.10
2019-04-05T06:59:33.272Z,14.40
2019-04-05T07:02:00.681Z,13.03
2019-04-05T07:04:30.755Z,21.50
2019-04-05T07:06:56.966Z,12.83
2019-04-05T07:09:24.281Z,12.80
2019-04-05T07:11:51.581Z,12.57
2019-04-05T07:14:19.656Z,14.07
2019-04-05T07:16:47.609Z,16.23
2019-04-05T07:19:14.888Z,13.73
2019-04-05T07:21:42.186Z,14.13
2019-04-05T07:24:09.645Z,12.63
2019-04-05T07:26:36.980Z,14.70
2019-04-05T07:29:04.270Z,13.20
2019-04-05T07:31:31.645Z,12.70
2019-04-05T07:33:58.916Z,14.77
2019-04-05T07:36:26.197Z,14.47
2019-04-05T07:38:53.543Z,13.20
2019-04-05T07:41:20.872Z,16.83
2019-04-05T07:43:48.240Z,14.23
2019-04-05T07:46:15.628Z,15.43
2019-04-05T07:48:45.125Z,13.87
2019-04-05T07:51:11.937Z,13.03
2019-04-05T07:53:39.616Z,13.47
2019-04-05T07:56:06.897Z,14.53
2019-04-05T07:58:34.189Z,14.77
2019-04-05T08:01:03.060Z,18.27
2019-04-05T08:03:30.336Z,13.23
2019-04-05T08:05:57.616Z,13.67
2019-04-05T08:08:35.489Z,13.67
2019-04-05T08:11:02.836Z,14.73
2019-04-05T08:13:30.876Z,14.90
2019-04-05T08:16:01.281Z,15.57
2019-04-05T08:18:28.568Z,14.47
2019-04-05T08:20:55.850Z,20.57
2019-04-05T08:23:23.233Z,14.60
2019-04-05T08:25:50.510Z,13.47
2019-04-05T08:28:17.879Z,14.17
2019-04-05T08:30:45.672Z,16.63
2019-04-05T08:33:13.016Z,14.97
2019-04-05T08:35:40.294Z,15.57
2019-04-05T08:38:07.665Z,14.53
2019-04-05T08:40:34.936Z,16.10
2019-04-05T08:43:02.221Z,17.17
2019-04-05T08:45:29.541Z,17.80
2019-04-05T08:47:56.928Z,15.47
2019-04-05T08:50:24.218Z,17.70
2019-04-05T08:52:53.313Z,16.47
2019-04-05T08:55:20.630Z,18.10
2019-04-05T08:57:48.171Z,18.37
2019-04-05T09:00:16.021Z,17.53
2019-04-05T09:02:43.347Z,23.00
2019-04-05T09:05:10.746Z,18.97
2019-04-05T09:07:38.257Z,23.23
2019-04-05T09:10:06.001Z,18.83
2019-04-05T09:12:33.298Z,20.83
2019-04-05T09:15:00.642Z,16.97
2019-04-05T09:17:29.661Z,19.00
2019-04-05T09:19:57.349Z,22.00
2019-04-05T09:22:25.757Z,24.63
2019-04-05T09:24:53.061Z,20.83
2019-04-05T09:27:20.476Z,18.80
2019-04-05T09:29:49.059Z,19.03
2019-04-05T09:32:16.440Z,21.13
2019-04-05T09:34:45.099Z,19.00
2019-04-05T09:37:14.325Z,20.27
2019-04-05T09:39:43.356Z,20.17
2019-04-05T09:42:10.823Z,21.53
2019-04-05T09:44:39.881Z,22.07
2019-04-05T09:47:07.343Z,26.27
2019-04-05T09:49:36.840Z,21.53
2019-04-05T09:52:06.032Z,20.43
2019-04-05T09:54:33.408Z,20.57
2019-04-05T09:57:00.789Z,22.03
2019-04-05T09:59:28.122Z,23.27
2019-04-05T10:01:55.797Z,21.47
2019-04-05T10:04:23.183Z,23.00
2019-04-05T10:06:51.622Z,21.87
2019-04-05T10:09:19.889Z,23.13
2019-04-05T10:11:47.253Z,22.33
2019-04-05T10:14:14.702Z,21.60
2019-04-05T10:16:42.019Z,19.50
2019-04-05T10:19:09.391Z,22.73
2019-04-05T10:21:36.732Z,24.30
2019-04-05T10:24:06.584Z,23.33
2019-04-05T10:26:33.971Z,21.53
2019-04-05T10:29:01.480Z,23.63
2019-04-05T10:31:28.862Z,24.90
2019-04-05T10:33:56.278Z,24.43
2019-04-05T10:36:23.689Z,27.50
2019-04-05T10:38:51.124Z,32.20
2019-04-05T10:41:18.445Z,27.33
2019-04-05T10:43:47.058Z,27.27
2019-04-05T10:46:14.449Z,28.83
2019-04-05T10:48:41.852Z,25.87
2019-04-05T10:51:09.331Z,25.10
2019-04-05T10:53:36.777Z,28.73
2019-04-05T10:56:04.223Z,28.77
2019-04-05T10:58:31.724Z,27.40
2019-04-05T11:01:00.534Z,30.63
2019-04-05T11:03:27.943Z,28.87
2019-04-05T11:05:55.379Z,30.40
2019-04-05T11:08:22.853Z,34.17
2019-04-05T11:10:50.232Z,28.43
2019-04-05T11:13:17.729Z,28.40
2019-04-05T11:15:46.123Z,31.40
2019-04-05T11:18:13.495Z,28.87
2019-04-05T11:20:42.441Z,32.03
2019-04-05T11:23:09.881Z,33.97
2019-04-05T11:25:37.280Z,35.43
2019-04-05T11:28:05.222Z,34.23
2019-04-05T11:30:37.043Z,31.27
2019-04-05T11:33:04.436Z,31.23
2019-04-05T11:35:34.292Z,36.30
2019-04-05T11:38:01.676Z,30.43
2019-04-05T11:40:29.071Z,29.30
2019-04-05T11:42:57.732Z,31.27
2019-04-05T11:45:25.188Z,29.67
2019-04-05T11:47:57.668Z,30.17
2019-04-05T11:50:34.562Z,30.87
2019-04-05T11:52:54.851Z,29.17
2019-04-05T11:55:24.089Z,30.43
2019-04-05T11:57:54.533Z,30.90
2019-04-05T12:00:38.609Z,33.30
2019-04-05T12:03:16.600Z,27.30
2019-04-05T12:05:46.631Z,31.00
2019-04-05T12:08:14.012Z,32.90
2019-04-05T12:10:41.519Z,38.07
2019-04-05T12:13:10.547Z,33.90
2019-04-05T12:15:39.453Z,32.60
2019-04-05T12:18:06.897Z,31.90
2019-04-05T12:20:47.355Z,33.43
2019-04-05T12:23:03.367Z,36.33
2019-04-05T12:25:33.431Z,34.37
2019-04-05T12:28:06.742Z,34.13
2019-04-05T12:30:30.366Z,32.87
2019-04-05T12:32:57.854Z,35.33
2019-04-05T12:35:25.223Z,39.47
2019-04-05T12:37:55.508Z,48.23
2019-04-05T12:40:21.769Z,32.70
2019-04-05T12:42:49.073Z,38.03
2019-04-05T12:45:16.435Z,34.17
2019-04-05T12:47:45.597Z,35.33
2019-04-05T12:50:14.639Z,31.37
2019-04-05T12:52:42.279Z,32.83
2019-04-05T12:55:09.724Z,34.90
2019-04-05T12:57:38.662Z,36.00
2019-04-05T13:00:14.725Z,34.70
2019-04-05T13:02:42.337Z,38.77
2019-04-05T13:05:09.770Z,34.10
2019-04-05T13:07:37.143Z,32.33
2019-04-05T13:10:05.455Z,41.50
2019-04-05T13:12:32.838Z,41.63
2019-04-05T13:15:12.220Z,37.47
2019-04-05T13:17:31.062Z,36.50
2019-04-05T13:19:58.433Z,38.00
2019-04-05T13:22:27.329Z,39.17
2019-04-05T13:24:54.670Z,34.80
2019-04-05T13:27:21.955Z,38.77
2019-04-05T13:29:51.324Z,34.80
2019-04-05T13:32:21.530Z,37.13
2019-04-05T13:34:47.608Z,36.93
2019-04-05T13:37:20.383Z,35.37
2019-04-05T13:39:43.916Z,39.03
2019-04-05T13:42:11.185Z,35.07
2019-04-05T13:44:38.509Z,31.30
2019-04-05T13:47:08.086Z,32.40
2019-04-05T13:49:34.821Z,32.60
2019-04-05T13:52:02.344Z,31.03
2019-04-05T13:54:29.622Z,29.60
2019-04-05T13:56:56.959Z,36.47
2019-04-05T13:59:24.292Z,30.50
2019-04-05T14:01:51.648Z,37.30
2019-04-05T14:04:20.662Z,34.60
2019-04-05T14:06:48.038Z,36.17
2019-04-05T14:09:15.700Z,35.10
2019-04-05T14:11:43.197Z,34.80
2019-04-05T14:14:12.099Z,34.20
2019-04-05T14:16:42.592Z,35.27
2019-04-05T14:19:08.613Z,33.80
2019-04-05T14:21:40.858Z,34.63
2019-04-05T14:24:04.959Z,33.20
2019-04-05T14:26:32.348Z,35.10
2019-04-05T14:29:03.414Z,35.80
2019-04-05T14:31:29.572Z,33.10
2019-04-05T14:33:57.707Z,31.93
2019-04-05T14:36:25.105Z,32.17
2019-04-05T14:38:52.524Z,31.83
2019-04-05T14:41:19.893Z,35.43
2019-04-05T14:43:47.217Z,33.80
2019-04-05T14:46:14.568Z,33.27
2019-04-05T14:48:41.944Z,30.47
2019-04-05T14:51:09.354Z,29.47
2019-04-05T14:53:36.784Z,26.43
2019-04-05T14:56:04.134Z,28.30
2019-04-05T14:58:31.564Z,27.63
2019-04-05T15:00:59.001Z,26.80
2019-04-05T15:03:26.297Z,27.37
2019-04-05T15:05:53.684Z,30.07
2019-04-05T15:08:21.231Z,31.87
2019-04-05T15:10:51.214Z,25.23
2019-04-05T15:13:17.761Z,28.97
2019-04-05T15:15:45.114Z,28.07
2019-04-05T15:18:12.459Z,27.40
2019-04-05T15:20:40.770Z,28.27
2019-04-05T15:23:09.532Z,28.43
2019-04-05T15:25:37.188Z,27.33
2019-04-05T15:28:04.507Z,24.60
2019-04-05T15:30:31.796Z,24.40
2019-04-05T15:33:00.805Z,25.07
2019-04-05T15:35:28.692Z,24.70
2019-04-05T15:37:56.080Z,25.30
2019-04-05T15:40:23.345Z,24.87
2019-04-05T15:42:50.956Z,22.57
2019-04-05T15:45:18.362Z,20.53
2019-04-05T15:47:45.646Z,22.83
2019-04-05T15:50:13.261Z,19.50
2019-04-05T15:52:40.570Z,22.23
2019-04-05T15:55:08.080Z,18.67
2019-04-05T15:57:35.476Z,19.60
2019-04-05T16:00:04.954Z,17.90
2019-04-05T16:02:33.604Z,16.47
2019-04-05T16:05:01.049Z,17.90
2019-04-05T16:07:28.334Z,17.00
2019-04-05T16:09:55.600Z,16.00
2019-04-05T16:12:22.937Z,17.27
2019-04-05T16:14:50.304Z,19.60
2019-04-05T16:17:17.608Z,17.40
2019-04-05T16:19:45.060Z,25.10
2019-04-05T16:22:12.418Z,19.70
2019-04-05T16:24:39.712Z,18.17
2019-04-05T16:27:07.096Z,19.17
2019-04-05T16:29:34.464Z,18.93
2019-04-05T16:32:01.773Z,23.87
2019-04-05T16:34:29.182Z,17.60
2019-04-05T16:36:56.642Z,18.83
2019-04-05T16:39:24.001Z,18.80
2019-04-05T16:41:51.666Z,19.00
2019-04-05T16:44:19.044Z,17.80
2019-04-05T16:46:47.260Z,18.93
2019-04-05T16:49:14.650Z,17.77
2019-04-05T16:51:41.965Z,18.10
2019-04-05T16:54:09.483Z,18.83
2019-04-05T16:56:36.872Z,19.93
2019-04-05T16:59:04.465Z,20.83
2019-04-05T17:01:31.764Z,20.27
2019-04-05T17:03:59.174Z,20.30
2019-04-05T17:06:26.476Z,19.20
2019-04-05T17:08:53.774Z,20.30
2019-04-05T17:11:21.114Z,19.57
2019-04-05T17:13:48.533Z,18.70
2019-04-05T17:16:15.879Z,22.40
2019-04-05T17:18:43.198Z,17.70
2019-04-05T17:21:10.572Z,17.37
2019-04-05T17:23:37.859Z,16.27
2019-04-05T17:26:05.243Z,16.73
2019-04-05T17:28:33.589Z,17.53
2019-04-05T17:31:00.879Z,16.70
2019-04-05T17:33:28.363Z,17.97
2019-04-05T17:35:55.718Z,18.43
2019-04-05T17:38:22.985Z,18.73
2019-04-05T17:40:50.301Z,18.73
2019-04-05T17:43:20.035Z,18.53
2019-04-05T17:45:47.380Z,19.47
2019-04-05T17:48:14.986Z,19.97
2019-04-05T17:50:42.983Z,18.70
2019-04-05T17:53:13.222Z,20.03
2019-04-05T17:55:39.373Z,17.17
2019-04-05T17:58:07.135Z,17.63
2019-04-05T18:00:34.495Z,17.87
2019-04-05T18:03:02.025Z,15.90
2019-04-05T18:05:29.336Z,16.17
2019-04-05T18:07:56.723Z,16.33
2019-04-05T18:10:24.192Z,19.70
2019-04-05T18:12:51.573Z,16.60
2019-04-05T18:15:18.951Z,21.30
2019-04-05T18:17:46.268Z,17.87
2019-04-05T18:20:13.628Z,17.80
2019-04-05T18:22:40.906Z,20.30
2019-04-05T18:25:09.621Z,17.97
2019-04-05T18:27:37.013Z,18.37
2019-04-05T18:30:06.501Z,18.53
2019-04-05T18:32:33.957Z,17.30
2019-04-05T18:35:01.825Z,18.47
2019-04-05T18:37:29.156Z,18.63
2019-04-05T18:39:56.779Z,19.10
2019-04-05T18:42:24.092Z,18.23
2019-04-05T18:44:53.836Z,18.83
2019-04-05T18:47:21.310Z,17.97
2019-04-05T18:49:48.607Z,18.33
2019-04-05T18:52:15.961Z,18.13
2019-04-05T18:54:43.348Z,17.97
2019-04-05T18:57:10.715Z,19.67
2019-04-05T18:59:38.111Z,21.73
2019-04-05T19:02:05.436Z,22.60
2019-04-05T19:04:32.878Z,18.23
2019-04-05T19:07:00.241Z,18.10
2019-04-05T19:09:27.698Z,20.03
2019-04-05T19:11:55.409Z,18.50
2019-04-05T19:14:22.778Z,17.67
2019-04-05T19:16:50.236Z,17.10
2019-04-05T19:19:19.228Z,17.53
2019-04-05T19:21:46.518Z,18.80
2019-04-05T19:24:13.824Z,18.67
2019-04-05T19:26:41.121Z,22.83
2019-04-05T19:29:08.392Z,21.30
2019-04-05T19:49:04.441Z,13.43
2019-04-05T19:51:31.734Z,16.00
2019-04-05T19:54:01.689Z,12.83
2019-04-05T19:56:29.197Z,13.67
2019-04-05T19:58:56.573Z,13.57
2019-04-05T20:01:23.976Z,15.33
2019-04-05T20:03:51.284Z,13.50
2019-04-05T20:06:18.633Z,11.90
2019-04-05T20:08:45.945Z,12.80
2019-04-05T20:11:13.240Z,14.00
2019-04-05T20:13:52.777Z,12.60
2019-04-05T20:16:20.239Z,14.13
2019-04-05T20:18:47.614Z,13.60
2019-04-05T20:21:14.982Z,14.13
2019-04-05T20:23:47.343Z,17.23
2019-04-05T20:26:11.297Z,14.73
2019-04-05T20:28:38.583Z,15.13
2019-04-05T20:31:06.949Z,16.07
2019-04-05T20:33:34.247Z,15.73
2019-04-05T20:36:01.613Z,16.80
2019-04-05T20:38:28.953Z,17.90
2019-04-05T20:40:56.306Z,16.17
2019-04-05T20:43:23.663Z,16.60
2019-04-05T20:45:51.138Z,13.87
2019-04-05T20:48:18.420Z,14.57
2019-04-05T20:50:45.709Z,15.73
2019-04-05T20:53:13.084Z,14.37
2019-04-05T20:55:40.381Z,13.43
2019-04-05T20:58:07.644Z,12.97
2019-04-05T21:00:34.968Z,12.10
2019-04-05T21:03:02.264Z,10.83
2019-04-05T21:05:29.616Z,13.17
2019-04-05T21:07:56.943Z,12.27
2019-04-05T21:10:24.261Z,12.53
2019-04-05T21:12:51.667Z,10.80
2019-04-05T21:15:18.971Z,9.17
2019-04-05T21:17:46.244Z,9.60
2019-04-05T21:20:13.709Z,12.10
2019-04-05T21:22:41.204Z,11.87
2019-04-05T21:25:08.560Z,7.87
2019-04-05T21:27:35.838Z,8.53
2019-04-05T21:30:04.797Z,10.40
2019-04-05T21:32:32.080Z,9.90
2019-04-05T21:34:59.443Z,8.67
2019-04-05T21:37:26.817Z,10.07
2019-04-05T21:39:54.105Z,10.13
2019-04-05T21:42:21.467Z,9.40
2019-04-05T21:44:48.780Z,12.50
2019-04-05T21:47:16.061Z,9.43
2019-04-05T21:49:43.330Z,10.27
2019-04-05T21:52:11.094Z,9.37
2019-04-05T21:54:47.138Z,10.80
2019-04-05T21:57:07.505Z,10.10
2019-04-05T21:59:34.813Z,10.07
2019-04-05T22:02:02.229Z,11.60
2019-04-05T22:04:29.515Z,8.70
2019-04-05T22:06:56.805Z,9.37
2019-04-05T22:09:24.648Z,9.50
2019-04-05T22:11:53.100Z,10.10
2019-04-05T22:14:20.460Z,9.80
2019-04-05T22:16:47.814Z,9.73
2019-04-05T22:19:15.077Z,9.30
2019-04-05T22:21:42.457Z,9.23
2019-04-05T22:24:09.733Z,11.60
2019-04-05T22:26:36.999Z,9.17
2019-04-05T22:29:04.300Z,8.70
2019-04-05T22:31:31.588Z,8.50
2019-04-05T22:33:58.853Z,8.90
2019-04-05T22:36:27.332Z,9.77
2019-04-05T22:38:54.615Z,10.27
2019-04-05T22:41:21.936Z,10.23
2019-04-05T22:43:49.243Z,11.40
2019-04-05T22:46:16.513Z,10.50
2019-04-05T22:48:43.819Z,10.60
2019-04-05T22:51:11.475Z,8.60
2019-04-05T22:53:38.828Z,11.43
2019-04-05T22:56:06.166Z,9.60
2019-04-05T22:58:33.529Z,9.93
2019-04-05T23:01:00.916Z,11.30
2019-04-05T23:03:28.192Z,10.07
2019-04-05T23:05:55.483Z,10.80
2019-04-05T23:08:22.823Z,12.80
2019-04-05T23:10:50.092Z,10.17
2019-04-05T23:13:17.393Z,11.37
2019-04-05T23:15:44.669Z,11.97
2019-04-05T23:18:11.948Z,11.80
2019-04-05T23:20:39.305Z,11.60
2019-04-05T23:23:06.678Z,11.13
2019-04-05T23:25:34.022Z,11.07
2019-04-05T23:28:01.327Z,9.27
2019-04-05T23:30:30.384Z,9.90
2019-04-05T23:32:57.660Z,9.63
2019-04-05T23:35:25.017Z,12.97
2019-04-05T23:37:52.293Z,9.63
2019-04-05T23:40:19.591Z,11.57
2019-04-05T23:42:47.148Z,11.17
2019-04-05T23:45:14.441Z,10.97
2019-04-05T23:47:41.717Z,10.03
2019-04-05T23:50:09.300Z,9.60
2019-04-05T23:52:36.664Z,11.07
2019-04-05T23:55:04.984Z,12.10
2019-04-05T23:57:32.288Z,11.27
2019-04-05T23:59:59.577Z,11.87
